ABS weather

Abu Simbel Airport
Abu Simbel, Aswan Governorate, Egypt

Public forecast

Using degrees Celsius for public forecast. Weather courtesy of forecast.io.

METAR (pilot weather report)

Retrieved 2019/04/21 16:00 UTC (19 minutes ago):

HEBL 211600Z 36017KT CAVOK 27/M07 Q1013 NOSIG

TAF (pilot weather forecast)

Retrieved 2019/04/21 12:57 UTC (3 hours ago):

TAF HEBL 211100Z 2112/2218 35016KT CAVOK